sensor_id;sensor_type;location;lat;lon;timestamp;P1;durP1;ratioP1;P2;durP2;ratioP2
9370;SDS011;4725;48.384;8.984;2024-03-17T00:01:37;5.03;;;2.70;;
9370;SDS011;4725;48.384;8.984;2024-03-17T00:04:06;4.17;;;2.80;;
9370;SDS011;4725;48.384;8.984;2024-03-17T00:06:34;2.40;;;2.10;;
9370;SDS011;4725;48.384;8.984;2024-03-17T00:09:01;2.73;;;2.20;;
9370;SDS011;4725;48.384;8.984;2024-03-17T00:11:31;3.00;;;2.20;;
9370;SDS011;4725;48.384;8.984;2024-03-17T00:13:59;3.20;;;2.00;;
9370;SDS011;4725;48.384;8.984;2024-03-17T00:16:24;3.47;;;2.30;;
9370;SDS011;4725;48.384;8.984;2024-03-17T00:18:52;5.40;;;2.27;;
9370;SDS011;4725;48.384;8.984;2024-03-17T00:21:18;2.67;;;2.27;;
9370;SDS011;4725;48.384;8.984;2024-03-17T00:23:48;3.10;;;2.40;;
9370;SDS011;4725;48.384;8.984;2024-03-17T00:26:14;3.40;;;2.60;;
9370;SDS011;4725;48.384;8.984;2024-03-17T00:28:41;3.40;;;2.57;;
9370;SDS011;4725;48.384;8.984;2024-03-17T00:31:11;2.40;;;2.20;;
9370;SDS011;4725;48.384;8.984;2024-03-17T00:33:39;2.50;;;2.13;;
9370;SDS011;4725;48.384;8.984;2024-03-17T00:36:06;4.53;;;2.87;;
9370;SDS011;4725;48.384;8.984;2024-03-17T00:38:39;2.97;;;2.53;;
9370;SDS011;4725;48.384;8.984;2024-03-17T00:41:06;2.73;;;2.20;;
9370;SDS011;4725;48.384;8.984;2024-03-17T00:43:33;2.20;;;1.97;;
9370;SDS011;4725;48.384;8.984;2024-03-17T00:46:00;2.13;;;1.93;;
9370;SDS011;4725;48.384;8.984;2024-03-17T00:48:27;2.50;;;2.30;;
9370;SDS011;4725;48.384;8.984;2024-03-17T00:50:57;2.83;;;2.40;;
9370;SDS011;4725;48.384;8.984;2024-03-17T00:53:23;2.40;;;2.20;;
9370;SDS011;4725;48.384;8.984;2024-03-17T00:55:51;2.60;;;2.23;;
9370;SDS011;4725;48.384;8.984;2024-03-17T00:58:18;1.90;;;1.70;;
9370;SDS011;4725;48.384;8.984;2024-03-17T01:00:46;3.10;;;2.00;;
9370;SDS011;4725;48.384;8.984;2024-03-17T01:03:13;4.30;;;2.20;;
9370;SDS011;4725;48.384;8.984;2024-03-17T01:05:40;2.20;;;1.97;;
9370;SDS011;4725;48.384;8.984;2024-03-17T01:08:08;3.63;;;2.20;;
9370;SDS011;4725;48.384;8.984;2024-03-17T01:10:36;3.67;;;2.03;;
9370;SDS011;4725;48.384;8.984;2024-03-17T01:13:03;2.73;;;1.70;;
9370;SDS011;4725;48.384;8.984;2024-03-17T01:15:32;4.80;;;3.20;;
9370;SDS011;4725;48.384;8.984;2024-03-17T01:17:58;2.20;;;2.00;;
9370;SDS011;4725;48.384;8.984;2024-03-17T01:20:25;3.87;;;2.50;;
9370;SDS011;4725;48.384;8.984;2024-03-17T01:22:52;2.50;;;1.63;;
9370;SDS011;4725;48.384;8.984;2024-03-17T01:25:19;3.20;;;1.90;;
9370;SDS011;4725;48.384;8.984;2024-03-17T01:27:45;4.30;;;1.93;;
9370;SDS011;4725;48.384;8.984;2024-03-17T01:30:12;1.97;;;1.73;;
9370;SDS011;4725;48.384;8.984;2024-03-17T01:32:40;2.43;;;1.90;;
9370;SDS011;4725;48.384;8.984;2024-03-17T01:35:08;3.47;;;1.90;;
9370;SDS011;4725;48.384;8.984;2024-03-17T01:37:33;3.83;;;2.13;;
9370;SDS011;4725;48.384;8.984;2024-03-17T01:40:00;3.77;;;1.80;;
9370;SDS011;4725;48.384;8.984;2024-03-17T01:42:29;2.80;;;1.80;;
9370;SDS011;4725;48.384;8.984;2024-03-17T01:44:56;2.93;;;2.10;;
9370;SDS011;4725;48.384;8.984;2024-03-17T01:47:22;2.50;;;1.70;;
9370;SDS011;4725;48.384;8.984;2024-03-17T01:49:51;2.43;;;2.10;;
9370;SDS011;4725;48.384;8.984;2024-03-17T01:52:19;2.70;;;1.70;;
9370;SDS011;4725;48.384;8.984;2024-03-17T01:54:46;2.20;;;1.63;;
9370;SDS011;4725;48.384;8.984;2024-03-17T01:57:13;2.57;;;1.93;;
9370;SDS011;4725;48.384;8.984;2024-03-17T01:59:39;2.97;;;1.93;;
9370;SDS011;4725;48.384;8.984;2024-03-17T02:02:06;3.13;;;1.97;;
9370;SDS011;4725;48.384;8.984;2024-03-17T02:04:33;3.17;;;2.10;;
9370;SDS011;4725;48.384;8.984;2024-03-17T02:07:01;5.20;;;1.77;;
9370;SDS011;4725;48.384;8.984;2024-03-17T02:09:27;2.30;;;1.73;;
9370;SDS011;4725;48.384;8.984;2024-03-17T02:11:54;1.70;;;1.53;;
9370;SDS011;4725;48.384;8.984;2024-03-17T02:14:20;2.47;;;1.60;;
9370;SDS011;4725;48.384;8.984;2024-03-17T02:16:47;1.90;;;1.60;;
9370;SDS011;4725;48.384;8.984;2024-03-17T02:19:13;7.17;;;2.03;;
9370;SDS011;4725;48.384;8.984;2024-03-17T02:21:40;3.60;;;2.30;;
9370;SDS011;4725;48.384;8.984;2024-03-17T02:24:08;4.60;;;3.00;;
9370;SDS011;4725;48.384;8.984;2024-03-17T02:26:35;3.33;;;2.73;;
9370;SDS011;4725;48.384;8.984;2024-03-17T02:29:03;3.70;;;2.57;;
9370;SDS011;4725;48.384;8.984;2024-03-17T02:31:30;3.00;;;2.70;;
9370;SDS011;4725;48.384;8.984;2024-03-17T02:33:56;3.37;;;2.60;;
9370;SDS011;4725;48.384;8.984;2024-03-17T02:36:23;3.43;;;2.60;;
9370;SDS011;4725;48.384;8.984;2024-03-17T02:38:49;3.77;;;2.67;;
9370;SDS011;4725;48.384;8.984;2024-03-17T02:41:35;4.17;;;2.93;;
9370;SDS011;4725;48.384;8.984;2024-03-17T02:44:02;3.67;;;2.50;;
9370;SDS011;4725;48.384;8.984;2024-03-17T02:46:31;3.20;;;2.70;;
9370;SDS011;4725;48.384;8.984;2024-03-17T02:48:59;3.50;;;2.57;;
9370;SDS011;4725;48.384;8.984;2024-03-17T02:51:26;3.43;;;2.93;;
9370;SDS011;4725;48.384;8.984;2024-03-17T02:53:53;3.40;;;2.27;;
9370;SDS011;4725;48.384;8.984;2024-03-17T02:56:19;3.50;;;2.70;;
9370;SDS011;4725;48.384;8.984;2024-03-17T02:58:48;3.47;;;2.67;;
9370;SDS011;4725;48.384;8.984;2024-03-17T03:01:14;5.77;;;2.90;;
9370;SDS011;4725;48.384;8.984;2024-03-17T03:03:41;4.93;;;2.53;;
9370;SDS011;4725;48.384;8.984;2024-03-17T03:06:07;3.57;;;2.27;;
9370;SDS011;4725;48.384;8.984;2024-03-17T03:08:36;4.40;;;2.93;;
9370;SDS011;4725;48.384;8.984;2024-03-17T03:11:05;3.63;;;2.40;;
9370;SDS011;4725;48.384;8.984;2024-03-17T03:13:36;4.23;;;2.80;;
9370;SDS011;4725;48.384;8.984;2024-03-17T03:16:06;4.03;;;2.73;;
9370;SDS011;4725;48.384;8.984;2024-03-17T03:18:34;3.60;;;2.97;;
9370;SDS011;4725;48.384;8.984;2024-03-17T03:21:01;2.60;;;2.13;;
9370;SDS011;4725;48.384;8.984;2024-03-17T03:23:28;5.40;;;3.40;;
9370;SDS011;4725;48.384;8.984;2024-03-17T03:25:55;3.10;;;2.80;;
9370;SDS011;4725;48.384;8.984;2024-03-17T03:28:23;4.17;;;3.13;;
9370;SDS011;4725;48.384;8.984;2024-03-17T03:30:50;3.90;;;3.00;;
9370;SDS011;4725;48.384;8.984;2024-03-17T03:33:18;3.90;;;3.07;;
9370;SDS011;4725;48.384;8.984;2024-03-17T03:35:45;4.63;;;3.50;;
9370;SDS011;4725;48.384;8.984;2024-03-17T03:38:12;6.57;;;5.10;;
9370;SDS011;4725;48.384;8.984;2024-03-17T03:40:39;6.27;;;4.00;;
9370;SDS011;4725;48.384;8.984;2024-03-17T03:43:06;6.53;;;4.73;;
9370;SDS011;4725;48.384;8.984;2024-03-17T03:45:34;6.20;;;4.70;;
9370;SDS011;4725;48.384;8.984;2024-03-17T03:48:01;6.83;;;4.03;;
9370;SDS011;4725;48.384;8.984;2024-03-17T03:50:30;5.40;;;4.07;;
9370;SDS011;4725;48.384;8.984;2024-03-17T03:52:58;7.97;;;4.53;;
9370;SDS011;4725;48.384;8.984;2024-03-17T03:55:24;5.63;;;3.60;;
9370;SDS011;4725;48.384;8.984;2024-03-17T03:57:51;4.77;;;3.83;;
9370;SDS011;4725;48.384;8.984;2024-03-17T04:00:18;3.73;;;2.90;;
9370;SDS011;4725;48.384;8.984;2024-03-17T04:02:47;5.47;;;3.13;;
9370;SDS011;4725;48.384;8.984;2024-03-17T04:05:15;4.13;;;3.10;;
9370;SDS011;4725;48.384;8.984;2024-03-17T04:07:45;4.37;;;3.50;;
9370;SDS011;4725;48.384;8.984;2024-03-17T04:10:13;4.13;;;3.33;;
9370;SDS011;4725;48.384;8.984;2024-03-17T04:12:43;5.10;;;3.80;;
9370;SDS011;4725;48.384;8.984;2024-03-17T04:15:11;4.97;;;2.93;;
9370;SDS011;4725;48.384;8.984;2024-03-17T04:17:39;3.97;;;2.83;;
9370;SDS011;4725;48.384;8.984;2024-03-17T04:20:07;5.53;;;2.70;;
9370;SDS011;4725;48.384;8.984;2024-03-17T04:22:38;2.83;;;2.43;;
9370;SDS011;4725;48.384;8.984;2024-03-17T04:25:07;2.70;;;2.40;;
9370;SDS011;4725;48.384;8.984;2024-03-17T04:27:34;3.20;;;2.30;;
9370;SDS011;4725;48.384;8.984;2024-03-17T04:30:01;4.50;;;2.73;;
9370;SDS011;4725;48.384;8.984;2024-03-17T04:32:30;4.57;;;2.33;;
9370;SDS011;4725;48.384;8.984;2024-03-17T04:34:58;2.80;;;2.53;;
9370;SDS011;4725;48.384;8.984;2024-03-17T04:37:25;4.80;;;2.70;;
9370;SDS011;4725;48.384;8.984;2024-03-17T04:39:52;3.50;;;2.60;;
9370;SDS011;4725;48.384;8.984;2024-03-17T04:42:23;3.30;;;2.80;;
9370;SDS011;4725;48.384;8.984;2024-03-17T04:44:51;4.37;;;2.90;;
9370;SDS011;4725;48.384;8.984;2024-03-17T04:47:18;3.33;;;2.67;;
9370;SDS011;4725;48.384;8.984;2024-03-17T04:49:45;2.70;;;2.43;;
9370;SDS011;4725;48.384;8.984;2024-03-17T04:52:12;2.67;;;2.30;;
9370;SDS011;4725;48.384;8.984;2024-03-17T04:54:41;3.00;;;2.70;;
9370;SDS011;4725;48.384;8.984;2024-03-17T04:57:08;5.43;;;3.17;;
9370;SDS011;4725;48.384;8.984;2024-03-17T04:59:36;2.63;;;2.40;;
9370;SDS011;4725;48.384;8.984;2024-03-17T05:02:04;4.30;;;2.50;;
9370;SDS011;4725;48.384;8.984;2024-03-17T05:04:31;2.93;;;2.63;;
9370;SDS011;4725;48.384;8.984;2024-03-17T05:06:58;5.30;;;2.93;;
9370;SDS011;4725;48.384;8.984;2024-03-17T05:09:25;5.27;;;2.27;;
9370;SDS011;4725;48.384;8.984;2024-03-17T05:11:52;4.00;;;2.87;;
9370;SDS011;4725;48.384;8.984;2024-03-17T05:14:19;3.50;;;2.60;;
9370;SDS011;4725;48.384;8.984;2024-03-17T05:16:49;5.13;;;2.63;;
9370;SDS011;4725;48.384;8.984;2024-03-17T05:19:16;3.30;;;3.00;;
9370;SDS011;4725;48.384;8.984;2024-03-17T05:21:43;2.77;;;2.57;;
9370;SDS011;4725;48.384;8.984;2024-03-17T05:24:10;3.23;;;2.67;;
9370;SDS011;4725;48.384;8.984;2024-03-17T05:26:38;3.00;;;2.43;;
9370;SDS011;4725;48.384;8.984;2024-03-17T05:29:04;2.90;;;2.53;;
9370;SDS011;4725;48.384;8.984;2024-03-17T05:31:32;3.03;;;2.53;;
9370;SDS011;4725;48.384;8.984;2024-03-17T05:34:00;2.50;;;2.30;;
9370;SDS011;4725;48.384;8.984;2024-03-17T05:36:27;3.97;;;2.30;;
9370;SDS011;4725;48.384;8.984;2024-03-17T05:38:57;4.43;;;2.90;;
9370;SDS011;4725;48.384;8.984;2024-03-17T05:41:24;4.47;;;3.40;;
9370;SDS011;4725;48.384;8.984;2024-03-17T05:43:53;5.87;;;3.83;;
9370;SDS011;4725;48.384;8.984;2024-03-17T05:46:23;3.17;;;2.80;;
9370;SDS011;4725;48.384;8.984;2024-03-17T05:48:50;2.97;;;2.47;;
9370;SDS011;4725;48.384;8.984;2024-03-17T05:51:19;3.10;;;2.80;;
9370;SDS011;4725;48.384;8.984;2024-03-17T05:53:46;2.40;;;2.20;;
9370;SDS011;4725;48.384;8.984;2024-03-17T05:56:13;3.83;;;2.60;;
9370;SDS011;4725;48.384;8.984;2024-03-17T05:58:41;5.37;;;2.70;;
9370;SDS011;4725;48.384;8.984;2024-03-17T06:01:08;3.03;;;2.67;;
9370;SDS011;4725;48.384;8.984;2024-03-17T06:03:36;2.67;;;2.33;;
9370;SDS011;4725;48.384;8.984;2024-03-17T06:06:04;2.80;;;2.60;;
9370;SDS011;4725;48.384;8.984;2024-03-17T06:08:36;3.90;;;3.30;;
9370;SDS011;4725;48.384;8.984;2024-03-17T06:11:03;3.67;;;2.90;;
9370;SDS011;4725;48.384;8.984;2024-03-17T06:13:30;3.50;;;3.03;;
9370;SDS011;4725;48.384;8.984;2024-03-17T06:15:57;3.27;;;2.93;;
9370;SDS011;4725;48.384;8.984;2024-03-17T06:18:25;4.27;;;2.87;;
9370;SDS011;4725;48.384;8.984;2024-03-17T06:20:53;4.50;;;2.97;;
9370;SDS011;4725;48.384;8.984;2024-03-17T06:23:23;4.30;;;3.50;;
9370;SDS011;4725;48.384;8.984;2024-03-17T06:25:51;3.40;;;3.10;;
9370;SDS011;4725;48.384;8.984;2024-03-17T06:28:19;4.07;;;3.67;;
9370;SDS011;4725;48.384;8.984;2024-03-17T06:30:53;4.07;;;3.67;;
9370;SDS011;4725;48.384;8.984;2024-03-17T06:33:21;4.40;;;3.40;;
9370;SDS011;4725;48.384;8.984;2024-03-17T06:35:47;4.67;;;3.57;;
9370;SDS011;4725;48.384;8.984;2024-03-17T06:38:14;5.90;;;3.80;;
9370;SDS011;4725;48.384;8.984;2024-03-17T06:40:41;3.30;;;3.00;;
9370;SDS011;4725;48.384;8.984;2024-03-17T06:43:15;7.13;;;3.47;;
9370;SDS011;4725;48.384;8.984;2024-03-17T06:45:42;3.40;;;3.10;;
9370;SDS011;4725;48.384;8.984;2024-03-17T06:48:09;3.90;;;3.50;;
9370;SDS011;4725;48.384;8.984;2024-03-17T06:50:37;4.13;;;3.23;;
9370;SDS011;4725;48.384;8.984;2024-03-17T06:53:06;3.87;;;3.30;;
9370;SDS011;4725;48.384;8.984;2024-03-17T06:55:34;3.77;;;3.20;;
9370;SDS011;4725;48.384;8.984;2024-03-17T06:58:01;4.50;;;3.70;;
9370;SDS011;4725;48.384;8.984;2024-03-17T07:00:30;3.40;;;3.10;;
9370;SDS011;4725;48.384;8.984;2024-03-17T07:02:57;3.97;;;3.27;;
9370;SDS011;4725;48.384;8.984;2024-03-17T07:05:24;3.43;;;3.13;;
9370;SDS011;4725;48.384;8.984;2024-03-17T07:07:51;3.50;;;3.00;;
9370;SDS011;4725;48.384;8.984;2024-03-17T07:10:18;3.37;;;3.00;;
9370;SDS011;4725;48.384;8.984;2024-03-17T07:12:45;5.77;;;3.80;;
9370;SDS011;4725;48.384;8.984;2024-03-17T07:15:12;3.80;;;3.40;;
9370;SDS011;4725;48.384;8.984;2024-03-17T07:17:40;5.67;;;3.10;;
9370;SDS011;4725;48.384;8.984;2024-03-17T07:20:07;4.43;;;3.20;;
9370;SDS011;4725;48.384;8.984;2024-03-17T07:22:37;8.63;;;5.20;;
9370;SDS011;4725;48.384;8.984;2024-03-17T07:25:05;9.20;;;5.57;;
9370;SDS011;4725;48.384;8.984;2024-03-17T07:27:32;7.20;;;4.70;;
9370;SDS011;4725;48.384;8.984;2024-03-17T07:29:59;9.70;;;6.63;;
9370;SDS011;4725;48.384;8.984;2024-03-17T07:32:26;9.53;;;5.03;;
9370;SDS011;4725;48.384;8.984;2024-03-17T07:34:54;5.73;;;3.20;;
9370;SDS011;4725;48.384;8.984;2024-03-17T07:37:21;2.77;;;2.40;;
9370;SDS011;4725;48.384;8.984;2024-03-17T07:39:47;3.50;;;2.37;;
9370;SDS011;4725;48.384;8.984;2024-03-17T07:42:15;2.20;;;2.00;;
9370;SDS011;4725;48.384;8.984;2024-03-17T07:44:42;3.13;;;2.00;;
9370;SDS011;4725;48.384;8.984;2024-03-17T07:47:10;3.83;;;2.17;;
9370;SDS011;4725;48.384;8.984;2024-03-17T07:49:37;2.00;;;1.77;;
9370;SDS011;4725;48.384;8.984;2024-03-17T07:52:05;3.60;;;2.00;;
9370;SDS011;4725;48.384;8.984;2024-03-17T07:54:32;2.33;;;2.10;;
9370;SDS011;4725;48.384;8.984;2024-03-17T07:57:00;2.83;;;1.90;;
9370;SDS011;4725;48.384;8.984;2024-03-17T07:59:27;2.07;;;1.93;;
9370;SDS011;4725;48.384;8.984;2024-03-17T08:01:55;2.23;;;1.93;;
9370;SDS011;4725;48.384;8.984;2024-03-17T08:04:22;2.30;;;2.10;;
9370;SDS011;4725;48.384;8.984;2024-03-17T08:06:49;2.70;;;1.90;;
9370;SDS011;4725;48.384;8.984;2024-03-17T08:09:17;2.30;;;1.73;;
9370;SDS011;4725;48.384;8.984;2024-03-17T08:11:44;2.60;;;1.80;;
9370;SDS011;4725;48.384;8.984;2024-03-17T08:14:12;2.67;;;1.90;;
9370;SDS011;4725;48.384;8.984;2024-03-17T08:16:39;3.60;;;1.83;;
9370;SDS011;4725;48.384;8.984;2024-03-17T08:19:07;5.10;;;1.70;;
9370;SDS011;4725;48.384;8.984;2024-03-17T08:21:34;2.80;;;1.80;;
9370;SDS011;4725;48.384;8.984;2024-03-17T08:24:01;2.25;;;1.75;;
9370;SDS011;4725;48.384;8.984;2024-03-17T08:26:29;3.90;;;1.60;;
9370;SDS011;4725;48.384;8.984;2024-03-17T08:28:56;1.90;;;1.42;;
9370;SDS011;4725;48.384;8.984;2024-03-17T08:31:23;1.60;;;1.50;;
9370;SDS011;4725;48.384;8.984;2024-03-17T08:33:50;2.85;;;1.65;;
9370;SDS011;4725;48.384;8.984;2024-03-17T08:36:17;2.05;;;1.85;;
9370;SDS011;4725;48.384;8.984;2024-03-17T08:38:45;1.60;;;1.50;;
9370;SDS011;4725;48.384;8.984;2024-03-17T08:41:13;1.88;;;1.73;;
9370;SDS011;4725;48.384;8.984;2024-03-17T08:43:41;1.80;;;1.48;;
9370;SDS011;4725;48.384;8.984;2024-03-17T08:46:08;1.55;;;1.45;;
9370;SDS011;4725;48.384;8.984;2024-03-17T08:48:38;2.85;;;1.40;;
9370;SDS011;4725;48.384;8.984;2024-03-17T08:51:06;1.63;;;1.52;;
9370;SDS011;4725;48.384;8.984;2024-03-17T08:53:35;2.13;;;1.88;;
9370;SDS011;4725;48.384;8.984;2024-03-17T08:56:04;2.17;;;1.90;;
9370;SDS011;4725;48.384;8.984;2024-03-17T08:58:33;3.28;;;1.77;;
9370;SDS011;4725;48.384;8.984;2024-03-17T09:01:04;4.80;;;1.77;;
9370;SDS011;4725;48.384;8.984;2024-03-17T09:03:32;1.70;;;1.52;;
9370;SDS011;4725;48.384;8.984;2024-03-17T09:05:59;3.10;;;1.67;;
9370;SDS011;4725;48.384;8.984;2024-03-17T09:08:25;2.13;;;1.40;;
9370;SDS011;4725;48.384;8.984;2024-03-17T09:10:53;2.25;;;1.20;;
9370;SDS011;4725;48.384;8.984;2024-03-17T09:13:21;3.33;;;1.50;;
9370;SDS011;4725;48.384;8.984;2024-03-17T09:15:51;1.40;;;1.30;;
9370;SDS011;4725;48.384;8.984;2024-03-17T09:18:19;7.18;;;1.55;;
9370;SDS011;4725;48.384;8.984;2024-03-17T09:20:54;2.63;;;2.17;;
9370;SDS011;4725;48.384;8.984;2024-03-17T09:23:25;2.50;;;1.55;;
9370;SDS011;4725;48.384;8.984;2024-03-17T09:25:56;2.63;;;1.45;;
9370;SDS011;4725;48.384;8.984;2024-03-17T09:28:24;1.75;;;1.30;;
9370;SDS011;4725;48.384;8.984;2024-03-17T09:30:51;3.00;;;1.63;;
9370;SDS011;4725;48.384;8.984;2024-03-17T09:33:20;2.03;;;1.40;;
9370;SDS011;4725;48.384;8.984;2024-03-17T09:35:54;2.40;;;1.23;;
9370;SDS011;4725;48.384;8.984;2024-03-17T09:38:24;1.63;;;1.30;;
9370;SDS011;4725;48.384;8.984;2024-03-17T09:40:51;2.30;;;1.25;;
9370;SDS011;4725;48.384;8.984;2024-03-17T09:43:20;4.15;;;1.55;;
9370;SDS011;4725;48.384;8.984;2024-03-17T09:45:47;3.42;;;2.58;;
9370;SDS011;4725;48.384;8.984;2024-03-17T09:48:16;5.45;;;1.77;;
9370;SDS011;4725;48.384;8.984;2024-03-17T09:50:48;3.20;;;1.63;;
9370;SDS011;4725;48.384;8.984;2024-03-17T09:53:17;2.80;;;1.40;;
9370;SDS011;4725;48.384;8.984;2024-03-17T09:55:49;3.05;;;1.50;;
9370;SDS011;4725;48.384;8.984;2024-03-17T09:58:16;5.68;;;1.77;;
9370;SDS011;4725;48.384;8.984;2024-03-17T10:00:44;4.80;;;1.55;;
9370;SDS011;4725;48.384;8.984;2024-03-17T10:03:11;2.45;;;1.33;;
9370;SDS011;4725;48.384;8.984;2024-03-17T10:05:38;2.42;;;1.40;;
9370;SDS011;4725;48.384;8.984;2024-03-17T10:08:07;5.03;;;1.50;;
9370;SDS011;4725;48.384;8.984;2024-03-17T10:10:48;2.85;;;1.38;;
9370;SDS011;4725;48.384;8.984;2024-03-17T10:13:19;4.82;;;2.10;;
9370;SDS011;4725;48.384;8.984;2024-03-17T10:15:47;4.18;;;1.50;;
9370;SDS011;4725;48.384;8.984;2024-03-17T10:18:19;3.40;;;1.50;;
9370;SDS011;4725;48.384;8.984;2024-03-17T10:20:48;4.20;;;1.70;;
9370;SDS011;4725;48.384;8.984;2024-03-17T10:23:19;3.95;;;1.45;;
9370;SDS011;4725;48.384;8.984;2024-03-17T10:25:46;3.50;;;1.25;;
9370;SDS011;4725;48.384;8.984;2024-03-17T10:28:14;7.70;;;2.17;;
9370;SDS011;4725;48.384;8.984;2024-03-17T10:30:42;2.47;;;1.33;;
9370;SDS011;4725;48.384;8.984;2024-03-17T10:33:23;3.58;;;1.92;;
9370;SDS011;4725;48.384;8.984;2024-03-17T10:35:52;4.25;;;1.50;;
9370;SDS011;4725;48.384;8.984;2024-03-17T10:38:27;2.92;;;1.73;;
9370;SDS011;4725;48.384;8.984;2024-03-17T10:40:54;2.22;;;1.38;;
9370;SDS011;4725;48.384;8.984;2024-03-17T10:43:21;2.53;;;1.60;;
9370;SDS011;4725;48.384;8.984;2024-03-17T10:45:51;4.38;;;1.73;;
9370;SDS011;4725;48.384;8.984;2024-03-17T10:48:20;2.95;;;1.30;;
9370;SDS011;4725;48.384;8.984;2024-03-17T10:50:49;2.35;;;1.35;;
9370;SDS011;4725;48.384;8.984;2024-03-17T10:53:19;3.72;;;1.67;;
9370;SDS011;4725;48.384;8.984;2024-03-17T10:55:54;3.30;;;1.50;;
9370;SDS011;4725;48.384;8.984;2024-03-17T10:58:35;4.07;;;1.73;;
9370;SDS011;4725;48.384;8.984;2024-03-17T11:01:04;3.55;;;1.30;;
9370;SDS011;4725;48.384;8.984;2024-03-17T11:03:32;4.93;;;1.45;;
9370;SDS011;4725;48.384;8.984;2024-03-17T11:06:00;3.35;;;1.92;;
9370;SDS011;4725;48.384;8.984;2024-03-17T11:08:30;3.10;;;1.95;;
9370;SDS011;4725;48.384;8.984;2024-03-17T11:11:00;4.93;;;1.50;;
9370;SDS011;4725;48.384;8.984;2024-03-17T11:13:29;3.03;;;1.77;;
9370;SDS011;4725;48.384;8.984;2024-03-17T11:15:57;3.28;;;1.50;;
9370;SDS011;4725;48.384;8.984;2024-03-17T11:18:31;3.28;;;1.90;;
9370;SDS011;4725;48.384;8.984;2024-03-17T11:21:02;3.50;;;1.42;;
9370;SDS011;4725;48.384;8.984;2024-03-17T11:23:35;3.47;;;1.80;;
9370;SDS011;4725;48.384;8.984;2024-03-17T11:26:05;4.57;;;2.47;;
9370;SDS011;4725;48.384;8.984;2024-03-17T11:28:46;2.45;;;1.52;;
9370;SDS011;4725;48.384;8.984;2024-03-17T11:36:59;5.25;;;1.92;;
9370;SDS011;4725;48.384;8.984;2024-03-17T11:42:26;3.28;;;1.75;;
9370;SDS011;4725;48.384;8.984;2024-03-17T11:44:59;7.70;;;2.30;;
9370;SDS011;4725;48.384;8.984;2024-03-17T11:47:33;5.18;;;1.73;;
9370;SDS011;4725;48.384;8.984;2024-03-17T11:50:01;2.80;;;1.60;;
9370;SDS011;4725;48.384;8.984;2024-03-17T11:52:30;3.17;;;1.42;;
9370;SDS011;4725;48.384;8.984;2024-03-17T11:54:56;3.22;;;1.40;;
9370;SDS011;4725;48.384;8.984;2024-03-17T11:57:23;6.50;;;2.10;;
9370;SDS011;4725;48.384;8.984;2024-03-17T11:59:51;3.90;;;1.50;;
9370;SDS011;4725;48.384;8.984;2024-03-17T12:02:21;4.43;;;1.33;;
9370;SDS011;4725;48.384;8.984;2024-03-17T12:04:50;3.72;;;1.60;;
9370;SDS011;4725;48.384;8.984;2024-03-17T12:07:19;5.43;;;1.80;;
9370;SDS011;4725;48.384;8.984;2024-03-17T12:09:46;5.55;;;1.48;;
9370;SDS011;4725;48.384;8.984;2024-03-17T12:12:16;2.40;;;1.48;;
9370;SDS011;4725;48.384;8.984;2024-03-17T12:14:43;3.97;;;1.52;;
9370;SDS011;4725;48.384;8.984;2024-03-17T12:17:12;3.22;;;1.58;;
9370;SDS011;4725;48.384;8.984;2024-03-17T12:19:39;3.25;;;1.42;;
9370;SDS011;4725;48.384;8.984;2024-03-17T12:22:07;1.95;;;1.58;;
9370;SDS011;4725;48.384;8.984;2024-03-17T12:24:36;3.65;;;1.50;;
9370;SDS011;4725;48.384;8.984;2024-03-17T12:27:04;3.03;;;1.40;;
9370;SDS011;4725;48.384;8.984;2024-03-17T12:29:31;2.97;;;1.55;;
9370;SDS011;4725;48.384;8.984;2024-03-17T12:32:01;3.30;;;1.60;;
9370;SDS011;4725;48.384;8.984;2024-03-17T12:34:30;1.92;;;1.38;;
9370;SDS011;4725;48.384;8.984;2024-03-17T12:36:58;5.00;;;1.45;;
9370;SDS011;4725;48.384;8.984;2024-03-17T12:39:24;6.13;;;1.70;;
9370;SDS011;4725;48.384;8.984;2024-03-17T12:42:02;2.95;;;1.52;;
9370;SDS011;4725;48.384;8.984;2024-03-17T12:44:29;3.35;;;1.90;;
9370;SDS011;4725;48.384;8.984;2024-03-17T12:46:58;2.05;;;1.35;;
9370;SDS011;4725;48.384;8.984;2024-03-17T12:49:25;4.25;;;1.98;;
9370;SDS011;4725;48.384;8.984;2024-03-17T12:51:54;2.97;;;1.58;;
9370;SDS011;4725;48.384;8.984;2024-03-17T12:54:24;1.48;;;1.20;;
9370;SDS011;4725;48.384;8.984;2024-03-17T12:57:02;1.92;;;1.38;;
9370;SDS011;4725;48.384;8.984;2024-03-17T12:59:47;3.00;;;1.73;;
9370;SDS011;4725;48.384;8.984;2024-03-17T13:02:32;2.15;;;1.50;;
9370;SDS011;4725;48.384;8.984;2024-03-17T13:05:05;2.60;;;1.52;;
9370;SDS011;4725;48.384;8.984;2024-03-17T13:07:35;2.83;;;1.48;;
9370;SDS011;4725;48.384;8.984;2024-03-17T13:10:03;4.18;;;1.80;;
9370;SDS011;4725;48.384;8.984;2024-03-17T13:12:32;2.08;;;1.38;;
9370;SDS011;4725;48.384;8.984;2024-03-17T13:14:59;3.25;;;1.40;;
9370;SDS011;4725;48.384;8.984;2024-03-17T13:17:26;3.60;;;1.65;;
9370;SDS011;4725;48.384;8.984;2024-03-17T13:19:54;2.05;;;1.20;;
9370;SDS011;4725;48.384;8.984;2024-03-17T13:22:21;4.97;;;2.08;;
9370;SDS011;4725;48.384;8.984;2024-03-17T13:24:49;4.75;;;1.40;;
9370;SDS011;4725;48.384;8.984;2024-03-17T13:27:16;1.75;;;1.20;;
9370;SDS011;4725;48.384;8.984;2024-03-17T13:29:47;3.08;;;1.17;;
9370;SDS011;4725;48.384;8.984;2024-03-17T13:32:14;3.25;;;1.30;;
9370;SDS011;4725;48.384;8.984;2024-03-17T13:34:42;3.00;;;1.20;;
9370;SDS011;4725;48.384;8.984;2024-03-17T13:37:09;3.13;;;1.33;;
9370;SDS011;4725;48.384;8.984;2024-03-17T13:39:36;3.17;;;1.55;;
9370;SDS011;4725;48.384;8.984;2024-03-17T13:42:04;5.90;;;1.40;;
9370;SDS011;4725;48.384;8.984;2024-03-17T13:44:32;4.50;;;1.55;;
9370;SDS011;4725;48.384;8.984;2024-03-17T13:46:59;4.43;;;1.52;;
9370;SDS011;4725;48.384;8.984;2024-03-17T13:49:28;1.90;;;1.45;;
9370;SDS011;4725;48.384;8.984;2024-03-17T13:51:55;3.60;;;1.33;;
9370;SDS011;4725;48.384;8.984;2024-03-17T13:54:23;3.15;;;1.50;;
9370;SDS011;4725;48.384;8.984;2024-03-17T13:56:49;3.35;;;1.55;;
9370;SDS011;4725;48.384;8.984;2024-03-17T13:59:18;2.13;;;1.15;;
9370;SDS011;4725;48.384;8.984;2024-03-17T14:01:45;2.28;;;1.40;;
9370;SDS011;4725;48.384;8.984;2024-03-17T14:04:14;4.45;;;1.42;;
9370;SDS011;4725;48.384;8.984;2024-03-17T14:06:41;4.85;;;1.70;;
9370;SDS011;4725;48.384;8.984;2024-03-17T14:09:08;1.90;;;1.10;;
9370;SDS011;4725;48.384;8.984;2024-03-17T14:11:35;3.42;;;1.10;;
9370;SDS011;4725;48.384;8.984;2024-03-17T14:14:03;3.08;;;1.38;;
9370;SDS011;4725;48.384;8.984;2024-03-17T14:16:32;2.00;;;1.17;;
9370;SDS011;4725;48.384;8.984;2024-03-17T14:18:59;4.80;;;1.63;;
9370;SDS011;4725;48.384;8.984;2024-03-17T14:21:26;3.17;;;1.23;;
9370;SDS011;4725;48.384;8.984;2024-03-17T14:23:54;4.57;;;1.70;;
9370;SDS011;4725;48.384;8.984;2024-03-17T14:26:21;4.15;;;1.63;;
9370;SDS011;4725;48.384;8.984;2024-03-17T14:28:48;3.17;;;1.50;;
9370;SDS011;4725;48.384;8.984;2024-03-17T14:31:16;4.78;;;2.00;;
9370;SDS011;4725;48.384;8.984;2024-03-17T14:33:45;6.10;;;1.52;;
9370;SDS011;4725;48.384;8.984;2024-03-17T14:36:11;4.40;;;1.65;;
9370;SDS011;4725;48.384;8.984;2024-03-17T14:38:38;2.95;;;1.30;;
9370;SDS011;4725;48.384;8.984;2024-03-17T14:41:05;5.38;;;1.50;;
9370;SDS011;4725;48.384;8.984;2024-03-17T14:43:32;5.28;;;1.70;;
9370;SDS011;4725;48.384;8.984;2024-03-17T14:46:03;5.53;;;1.67;;
9370;SDS011;4725;48.384;8.984;2024-03-17T14:48:32;4.78;;;1.80;;
9370;SDS011;4725;48.384;8.984;2024-03-17T14:51:01;5.07;;;1.90;;
9370;SDS011;4725;48.384;8.984;2024-03-17T14:53:28;4.15;;;1.40;;
9370;SDS011;4725;48.384;8.984;2024-03-17T14:55:56;3.85;;;1.70;;
9370;SDS011;4725;48.384;8.984;2024-03-17T14:58:24;4.28;;;1.48;;
9370;SDS011;4725;48.384;8.984;2024-03-17T15:00:51;2.55;;;1.10;;
9370;SDS011;4725;48.384;8.984;2024-03-17T15:03:18;2.05;;;1.35;;
9370;SDS011;4725;48.384;8.984;2024-03-17T15:05:44;2.15;;;1.27;;
9370;SDS011;4725;48.384;8.984;2024-03-17T15:08:13;1.75;;;1.20;;
9370;SDS011;4725;48.384;8.984;2024-03-17T15:10:39;2.70;;;1.48;;
9370;SDS011;4725;48.384;8.984;2024-03-17T15:13:06;5.30;;;1.50;;
9370;SDS011;4725;48.384;8.984;2024-03-17T15:15:35;3.30;;;1.20;;
9370;SDS011;4725;48.384;8.984;2024-03-17T15:18:02;2.05;;;1.35;;
9370;SDS011;4725;48.384;8.984;2024-03-17T15:20:30;5.13;;;1.80;;
9370;SDS011;4725;48.384;8.984;2024-03-17T15:22:56;2.63;;;1.00;;
9370;SDS011;4725;48.384;8.984;2024-03-17T15:25:25;3.35;;;1.50;;
9370;SDS011;4725;48.384;8.984;2024-03-17T15:27:52;5.13;;;1.60;;
9370;SDS011;4725;48.384;8.984;2024-03-17T15:30:19;4.35;;;1.70;;